createdAt,value
2023-05-05T00:01:06.570Z,24.90
2023-05-05T00:03:53.817Z,24.80
2023-05-05T00:06:41.085Z,24.80
2023-05-05T00:09:30.749Z,24.80
2023-05-05T00:12:17.923Z,24.80
2023-05-05T00:15:05.623Z,24.70
2023-05-05T00:17:53.385Z,24.70
2023-05-05T00:20:40.711Z,24.60
2023-05-05T00:23:28.032Z,24.50
2023-05-05T00:26:15.369Z,24.50
2023-05-05T00:29:02.656Z,24.40
2023-05-05T00:31:52.328Z,24.40
2023-05-05T00:34:39.534Z,24.30
2023-05-05T00:37:27.126Z,24.30
2023-05-05T00:40:14.532Z,24.20
2023-05-05T00:43:01.775Z,24.20
2023-05-05T00:46:14.610Z,24.10
2023-05-05T00:49:02.215Z,24.10
2023-05-05T00:51:49.547Z,24.00
2023-05-05T00:54:37.918Z,23.90
2023-05-05T00:57:26.108Z,23.80
2023-05-05T01:00:13.606Z,23.80
2023-05-05T01:03:00.935Z,23.70
2023-05-05T01:06:15.484Z,23.70
2023-05-05T01:09:11.617Z,23.50
2023-05-05T01:12:20.231Z,23.50
2023-05-05T01:15:26.461Z,23.40
2023-05-05T01:18:47.689Z,23.30
2023-05-05T01:21:46.801Z,23.20
2023-05-05T01:25:25.244Z,23.10
2023-05-05T01:28:23.436Z,23.00
2023-05-05T01:31:53.132Z,22.90
2023-05-05T01:35:00.715Z,22.90
2023-05-05T01:37:59.785Z,22.80
2023-05-05T01:41:11.869Z,22.70
2023-05-05T01:44:01.455Z,22.60
2023-05-05T01:46:50.366Z,22.50
2023-05-05T01:49:39.636Z,22.50
2023-05-05T01:52:28.075Z,22.40
2023-05-05T01:55:18.152Z,22.40
2023-05-05T01:58:07.405Z,22.30
2023-05-05T02:00:57.955Z,22.30
2023-05-05T02:03:47.432Z,22.30
2023-05-05T02:06:36.321Z,22.30
2023-05-05T02:09:26.698Z,22.30
2023-05-05T02:12:14.142Z,22.30
2023-05-05T02:15:02.906Z,22.30
2023-05-05T02:17:54.380Z,22.30
2023-05-05T02:20:41.777Z,22.30
2023-05-05T02:23:30.020Z,22.30
2023-05-05T02:26:19.929Z,22.20
2023-05-05T02:29:16.501Z,22.20
2023-05-05T02:32:11.478Z,22.10
2023-05-05T02:35:02.858Z,22.10
2023-05-05T02:38:02.835Z,22.10
2023-05-05T02:40:52.445Z,22.10
2023-05-05T02:43:42.564Z,22.10
2023-05-05T02:46:29.816Z,22.10
2023-05-05T02:49:17.257Z,22.10
2023-05-05T02:52:05.031Z,22.00
2023-05-05T02:54:52.229Z,22.00
2023-05-05T02:58:02.098Z,21.90
2023-05-05T03:01:32.426Z,21.80
2023-05-05T03:04:29.343Z,21.70
2023-05-05T03:07:25.045Z,21.70
2023-05-05T03:10:27.578Z,21.70
2023-05-05T03:13:18.629Z,21.70
2023-05-05T03:16:08.328Z,21.70
2023-05-05T03:18:58.667Z,21.70
2023-05-05T03:21:45.915Z,21.70
2023-05-05T03:24:33.204Z,21.60
2023-05-05T03:27:20.771Z,21.60
2023-05-05T03:30:08.708Z,21.60
2023-05-05T03:32:56.025Z,21.60
2023-05-05T03:35:43.287Z,21.60
2023-05-05T03:38:30.519Z,21.60
2023-05-05T03:41:17.713Z,21.60
2023-05-05T03:44:05.134Z,21.60
2023-05-05T03:46:52.372Z,21.60
2023-05-05T03:49:39.611Z,21.50
2023-05-05T03:52:26.780Z,21.50
2023-05-05T03:55:14.085Z,21.40
2023-05-05T03:58:01.361Z,21.40
2023-05-05T04:00:48.602Z,21.40
2023-05-05T04:03:35.806Z,21.40
2023-05-05T04:06:23.355Z,21.30
2023-05-05T04:09:12.093Z,21.30
2023-05-05T04:11:59.324Z,21.20
2023-05-05T04:14:46.582Z,21.10
2023-05-05T04:17:33.769Z,21.00
2023-05-05T04:20:21.418Z,21.00
2023-05-05T04:23:08.601Z,20.90
2023-05-05T04:25:55.809Z,20.90
2023-05-05T04:28:43.040Z,20.80
2023-05-05T04:31:31.876Z,20.80
2023-05-05T04:34:19.123Z,20.80
2023-05-05T04:37:06.328Z,20.80
2023-05-05T04:39:53.556Z,20.80
2023-05-05T04:42:40.780Z,20.80
2023-05-05T04:45:28.055Z,20.80
2023-05-05T04:48:15.628Z,20.80
2023-05-05T04:51:06.891Z,20.80
2023-05-05T04:53:54.070Z,20.80
2023-05-05T04:56:41.249Z,20.80
2023-05-05T04:59:28.417Z,20.90
2023-05-05T05:02:15.693Z,20.90
2023-05-05T05:05:03.266Z,21.00
2023-05-05T05:07:50.759Z,21.10
2023-05-05T05:10:37.945Z,21.10
2023-05-05T05:13:25.238Z,21.10
2023-05-05T05:16:12.582Z,21.10
2023-05-05T05:19:01.492Z,21.10
2023-05-05T05:21:49.096Z,21.00
2023-05-05T05:24:36.359Z,21.00
2023-05-05T05:27:23.539Z,21.00
2023-05-05T05:30:11.236Z,21.10
2023-05-05T05:32:58.460Z,21.10
2023-05-05T05:35:45.920Z,21.10
2023-05-05T05:38:33.381Z,21.10
2023-05-05T05:41:21.710Z,21.20
2023-05-05T05:44:08.943Z,21.30
2023-05-05T05:46:56.334Z,21.40
2023-05-05T05:49:43.534Z,21.50
2023-05-05T05:52:31.316Z,21.70
2023-05-05T05:55:18.584Z,21.80
2023-05-05T05:58:06.172Z,21.90
2023-05-05T06:01:00.087Z,21.90
2023-05-05T06:03:47.441Z,22.00
2023-05-05T06:06:49.764Z,22.00
2023-05-05T06:09:37.441Z,22.10
2023-05-05T06:12:24.649Z,22.10
2023-05-05T06:15:11.975Z,22.20
2023-05-05T06:17:59.183Z,22.20
2023-05-05T06:20:50.391Z,22.20
2023-05-05T06:23:37.534Z,22.30
2023-05-05T06:26:24.744Z,22.30
2023-05-05T06:29:12.443Z,22.30
2023-05-05T06:32:01.242Z,22.40
2023-05-05T06:34:48.668Z,22.40
2023-05-05T06:37:35.968Z,22.40
2023-05-05T06:40:23.181Z,22.50
2023-05-05T06:43:10.382Z,22.50
2023-05-05T06:45:57.555Z,22.50
2023-05-05T06:48:44.746Z,22.60
2023-05-05T06:51:32.130Z,22.70
2023-05-05T06:54:19.425Z,22.80
2023-05-05T06:57:06.639Z,22.90
2023-05-05T06:59:54.124Z,23.00
2023-05-05T07:02:41.828Z,23.00
2023-05-05T07:05:29.104Z,23.10
2023-05-05T07:08:16.413Z,23.10
2023-05-05T07:11:03.667Z,23.30
2023-05-05T07:13:51.015Z,23.30
2023-05-05T07:16:38.779Z,23.40
2023-05-05T07:19:26.051Z,23.40
2023-05-05T07:22:13.212Z,23.40
2023-05-05T07:25:00.539Z,23.40
2023-05-05T07:27:47.818Z,23.50
2023-05-05T07:30:35.076Z,23.50
2023-05-05T07:33:22.514Z,23.60
2023-05-05T07:36:09.797Z,23.60
2023-05-05T07:38:57.009Z,23.70
2023-05-05T07:41:44.340Z,23.70
2023-05-05T07:44:31.789Z,23.70
2023-05-05T07:47:19.009Z,23.70
2023-05-05T07:50:07.032Z,23.60
2023-05-05T07:53:02.366Z,23.50
2023-05-05T07:55:57.757Z,23.60
2023-05-05T07:58:44.921Z,23.70
2023-05-05T08:01:32.144Z,23.70
2023-05-05T08:04:19.399Z,23.70
2023-05-05T08:07:08.101Z,23.70
2023-05-05T08:09:55.193Z,23.60
2023-05-05T08:12:42.537Z,23.70
2023-05-05T08:15:29.768Z,23.70
2023-05-05T08:18:16.971Z,23.70
2023-05-05T08:21:11.260Z,23.70
2023-05-05T08:23:58.464Z,23.80
2023-05-05T08:26:45.691Z,23.80
2023-05-05T08:29:32.916Z,23.90
2023-05-05T08:32:20.133Z,24.00
2023-05-05T08:35:08.300Z,24.10
2023-05-05T08:37:58.156Z,24.20
2023-05-05T08:40:46.496Z,24.20
2023-05-05T08:43:34.908Z,24.20
2023-05-05T08:46:23.881Z,24.20
2023-05-05T08:49:16.210Z,24.20
2023-05-05T08:52:08.970Z,24.20
2023-05-05T08:55:04.620Z,24.10
2023-05-05T08:57:54.877Z,23.90
2023-05-05T09:00:44.744Z,23.80
2023-05-05T09:03:32.600Z,23.60
2023-05-05T09:06:23.566Z,23.70
2023-05-05T09:09:11.089Z,23.70
2023-05-05T09:11:59.801Z,23.70
2023-05-05T09:14:47.428Z,23.80
2023-05-05T09:17:34.570Z,23.80
2023-05-05T09:20:22.258Z,24.00
2023-05-05T09:23:10.724Z,24.10
2023-05-05T09:26:06.103Z,24.20
2023-05-05T09:28:53.499Z,24.30
2023-05-05T09:31:40.831Z,24.30
2023-05-05T09:34:28.076Z,24.20
2023-05-05T09:37:30.786Z,24.20
2023-05-05T09:40:19.246Z,24.20
2023-05-05T09:43:07.039Z,24.20
2023-05-05T09:46:07.594Z,24.30
2023-05-05T09:48:54.936Z,24.30
2023-05-05T09:51:42.181Z,24.30
2023-05-05T09:54:30.862Z,24.30
2023-05-05T09:57:29.096Z,24.30
2023-05-05T10:00:16.605Z,24.30
2023-05-05T10:03:04.431Z,24.30
2023-05-05T10:05:56.965Z,24.30
2023-05-05T10:08:44.689Z,24.30
2023-05-05T10:11:33.242Z,24.30
2023-05-05T10:14:20.943Z,24.40
2023-05-05T10:17:10.140Z,24.40
2023-05-05T10:19:59.907Z,24.40
2023-05-05T10:22:54.646Z,24.50
2023-05-05T10:25:53.820Z,24.40
2023-05-05T10:28:55.131Z,24.50
2023-05-05T10:31:50.093Z,24.40
2023-05-05T10:34:46.261Z,24.60
2023-05-05T10:37:33.716Z,24.60
2023-05-05T10:40:22.638Z,24.70
2023-05-05T10:43:10.669Z,24.80
2023-05-05T10:45:59.249Z,24.90
2023-05-05T10:49:13.073Z,25.10
2023-05-05T10:52:32.880Z,25.30
2023-05-05T10:55:34.966Z,25.40
2023-05-05T10:58:38.512Z,25.30
2023-05-05T11:01:36.417Z,25.20
2023-05-05T11:04:24.408Z,25.10
2023-05-05T11:07:14.677Z,25.00
2023-05-05T11:10:04.419Z,24.80
2023-05-05T11:13:02.552Z,24.80
2023-05-05T11:15:52.028Z,24.60
2023-05-05T11:18:46.065Z,24.40
2023-05-05T11:22:00.111Z,24.40
2023-05-05T11:24:47.908Z,24.20
2023-05-05T11:28:17.235Z,24.20
2023-05-05T11:31:04.441Z,24.20
2023-05-05T11:33:51.636Z,24.20
2023-05-05T11:36:40.844Z,24.40
2023-05-05T11:39:57.210Z,24.40
2023-05-05T11:42:44.449Z,24.50
2023-05-05T11:45:31.850Z,24.50
2023-05-05T11:48:28.197Z,24.60
2023-05-05T11:51:16.962Z,24.70
2023-05-05T11:54:04.740Z,24.60
2023-05-05T11:56:57.452Z,24.60
2023-05-05T11:59:54.860Z,24.70
2023-05-05T12:02:42.154Z,24.90
2023-05-05T12:05:29.457Z,24.90
2023-05-05T12:08:16.695Z,25.00
2023-05-05T12:11:08.183Z,25.30
2023-05-05T12:14:11.550Z,25.40
2023-05-05T12:17:08.737Z,25.40
2023-05-05T12:19:56.056Z,25.40
2023-05-05T12:22:43.874Z,25.50
2023-05-05T12:25:39.070Z,25.60
2023-05-05T12:28:42.510Z,25.80
2023-05-05T12:31:48.114Z,25.90
2023-05-05T12:34:35.905Z,26.00
2023-05-05T12:37:25.056Z,26.10
2023-05-05T12:40:51.875Z,26.10
2023-05-05T12:43:39.063Z,26.20
2023-05-05T12:46:26.931Z,26.00
2023-05-05T12:49:14.398Z,25.90
2023-05-05T12:52:01.721Z,25.90
2023-05-05T12:54:56.735Z,25.90
2023-05-05T12:58:04.619Z,25.90
2023-05-05T13:01:10.804Z,25.90
2023-05-05T13:04:10.858Z,25.90
2023-05-05T13:07:14.938Z,25.80
2023-05-05T13:10:12.540Z,25.80
2023-05-05T13:12:59.898Z,26.00
2023-05-05T13:15:47.121Z,25.90
2023-05-05T13:18:44.883Z,26.10
2023-05-05T13:21:32.209Z,26.20
2023-05-05T13:24:31.133Z,26.30
2023-05-05T13:27:25.633Z,26.50
2023-05-05T13:30:13.413Z,26.60
2023-05-05T13:33:00.628Z,26.60
2023-05-05T13:35:47.872Z,26.60
2023-05-05T13:38:36.521Z,26.60
2023-05-05T13:41:23.754Z,26.60
2023-05-05T13:44:11.007Z,26.60
2023-05-05T13:46:58.378Z,26.60
2023-05-05T13:49:45.696Z,26.70
2023-05-05T13:52:33.462Z,26.60
2023-05-05T13:55:21.143Z,26.60
2023-05-05T13:58:08.382Z,26.50
2023-05-05T14:00:56.278Z,26.40
2023-05-05T14:03:43.506Z,26.40
2023-05-05T14:06:30.741Z,26.30
2023-05-05T14:09:17.937Z,26.40
2023-05-05T14:12:06.222Z,26.40
2023-05-05T14:14:53.418Z,26.50
2023-05-05T14:17:41.201Z,26.50
2023-05-05T14:20:28.602Z,26.60
2023-05-05T14:23:15.907Z,26.70
2023-05-05T14:26:03.167Z,26.80
2023-05-05T14:28:50.376Z,26.80
2023-05-05T14:31:37.626Z,26.80
2023-05-05T14:34:24.944Z,26.80
2023-05-05T14:37:12.202Z,26.80
2023-05-05T14:39:59.463Z,26.80
2023-05-05T14:42:46.765Z,26.80
2023-05-05T14:45:34.184Z,26.80
2023-05-05T14:48:22.469Z,26.80
2023-05-05T14:51:09.942Z,26.70
2023-05-05T14:53:57.114Z,26.80
2023-05-05T14:56:44.374Z,27.00
2023-05-05T14:59:31.610Z,27.00
2023-05-05T15:02:19.230Z,27.20
2023-05-05T15:05:07.395Z,27.20
2023-05-05T15:07:54.957Z,27.40
2023-05-05T15:10:42.276Z,27.50
2023-05-05T15:13:29.780Z,27.50
2023-05-05T15:16:17.115Z,27.60
2023-05-05T15:19:04.431Z,27.50
2023-05-05T15:21:54.120Z,27.70
2023-05-05T15:24:41.450Z,27.80
2023-05-05T15:27:30.027Z,28.10
2023-05-05T15:30:17.304Z,28.50
2023-05-05T15:33:04.632Z,28.90
2023-05-05T15:35:51.955Z,29.10
2023-05-05T15:38:44.788Z,29.00
2023-05-05T15:41:34.300Z,28.70
2023-05-05T15:44:21.577Z,28.40
2023-05-05T15:47:11.028Z,28.20
2023-05-05T15:49:58.299Z,28.00
2023-05-05T15:52:47.184Z,27.70
2023-05-05T15:55:35.990Z,27.60
2023-05-05T15:58:23.332Z,27.60
2023-05-05T16:01:10.583Z,27.70
2023-05-05T16:03:57.963Z,28.00
2023-05-05T16:06:45.160Z,28.40
2023-05-05T16:09:32.381Z,29.20
2023-05-05T16:12:20.922Z,30.10
2023-05-05T16:15:08.877Z,30.40
2023-05-05T16:17:56.309Z,30.20
2023-05-05T16:20:43.574Z,29.90
2023-05-05T16:23:30.999Z,29.30
2023-05-05T16:26:18.477Z,28.90
2023-05-05T16:29:05.743Z,28.60
2023-05-05T16:31:52.983Z,28.40
2023-05-05T16:34:40.141Z,28.00
2023-05-05T16:37:27.423Z,27.90
2023-05-05T16:40:14.738Z,28.00
2023-05-05T16:43:02.007Z,28.10
2023-05-05T16:45:49.296Z,28.10
2023-05-05T16:48:36.620Z,28.10
2023-05-05T16:51:23.872Z,28.00
2023-05-05T16:54:11.068Z,27.90
2023-05-05T16:56:58.269Z,27.80
2023-05-05T16:59:45.510Z,27.70
2023-05-05T17:02:32.997Z,27.60
2023-05-05T17:05:20.416Z,27.50
2023-05-05T17:08:07.842Z,27.40
2023-05-05T17:10:55.236Z,27.30
2023-05-05T17:13:42.526Z,27.30
2023-05-05T17:16:29.964Z,27.20
2023-05-05T17:19:17.234Z,27.20
2023-05-05T17:22:04.526Z,27.20
2023-05-05T17:24:51.982Z,27.40
2023-05-05T17:27:39.326Z,27.70
2023-05-05T17:30:27.757Z,27.80
2023-05-05T17:33:16.842Z,28.20
2023-05-05T17:36:04.253Z,29.30
2023-05-05T17:38:51.459Z,30.80
2023-05-05T17:41:38.790Z,31.10
2023-05-05T17:44:26.021Z,30.70
2023-05-05T17:47:13.317Z,30.00
2023-05-05T17:50:00.775Z,29.20
2023-05-05T17:52:47.966Z,28.90
2023-05-05T17:55:35.118Z,29.60
2023-05-05T17:58:22.322Z,30.50
2023-05-05T18:01:13.548Z,31.40
2023-05-05T18:04:00.879Z,32.10
2023-05-05T18:06:48.213Z,32.40
2023-05-05T18:09:36.183Z,31.80
2023-05-05T18:12:23.339Z,31.00
2023-05-05T18:15:11.294Z,30.20
2023-05-05T18:17:58.692Z,29.50
2023-05-05T18:20:45.911Z,29.00
2023-05-05T18:23:33.137Z,28.80
2023-05-05T18:26:20.350Z,28.60
2023-05-05T18:29:07.731Z,28.30
2023-05-05T18:31:55.150Z,28.10
2023-05-05T18:34:42.497Z,27.70
2023-05-05T18:37:29.658Z,27.40
2023-05-05T18:40:17.016Z,27.10
2023-05-05T18:43:04.257Z,26.90
2023-05-05T18:45:51.786Z,26.70
2023-05-05T18:48:39.080Z,26.50
2023-05-05T18:51:26.505Z,26.30
2023-05-05T18:54:13.755Z,26.20
2023-05-05T18:57:01.208Z,26.00
2023-05-05T18:59:48.403Z,25.80
2023-05-05T19:02:35.626Z,25.70
2023-05-05T19:05:23.310Z,25.60
2023-05-05T19:08:10.781Z,25.50
2023-05-05T19:10:58.100Z,25.40
2023-05-05T19:13:45.524Z,25.20
2023-05-05T19:16:32.920Z,25.20
2023-05-05T19:19:20.133Z,25.10
2023-05-05T19:22:07.410Z,25.00
2023-05-05T19:24:54.729Z,25.00
2023-05-05T19:27:41.994Z,24.90
2023-05-05T19:30:29.199Z,24.80
2023-05-05T19:33:16.677Z,24.70
2023-05-05T19:36:04.078Z,24.60
2023-05-05T19:38:51.613Z,24.50
2023-05-05T19:41:38.905Z,24.40
2023-05-05T19:44:26.135Z,24.40
2023-05-05T19:47:13.357Z,24.30
2023-05-05T19:50:00.616Z,24.30
2023-05-05T19:52:47.851Z,24.20
2023-05-05T19:55:35.692Z,24.20
2023-05-05T19:58:22.974Z,24.20
2023-05-05T20:01:10.240Z,24.10
2023-05-05T20:03:57.751Z,24.10
2023-05-05T20:06:45.294Z,24.00
2023-05-05T20:09:32.505Z,24.00
2023-05-05T20:12:21.992Z,23.90
2023-05-05T20:15:10.568Z,24.00
2023-05-05T20:17:57.987Z,24.00
2023-05-05T20:20:45.357Z,24.00
2023-05-05T20:23:32.638Z,23.90
2023-05-05T20:26:20.112Z,23.90
2023-05-05T20:29:07.323Z,23.90
2023-05-05T20:31:54.694Z,23.90
2023-05-05T20:34:41.951Z,23.90
2023-05-05T20:37:29.189Z,23.90
2023-05-05T20:40:16.413Z,23.80
2023-05-05T20:43:03.743Z,23.80
2023-05-05T20:45:51.671Z,23.80
2023-05-05T20:48:42.275Z,23.80
2023-05-05T20:51:34.171Z,23.80
2023-05-05T20:54:21.472Z,23.70
2023-05-05T20:57:08.761Z,23.70
2023-05-05T20:59:55.973Z,23.70
2023-05-05T21:02:43.397Z,23.70
2023-05-05T21:05:31.782Z,23.70
2023-05-05T21:08:18.933Z,23.70
2023-05-05T21:11:09.969Z,23.70
2023-05-05T21:13:57.346Z,23.70
2023-05-05T21:16:44.604Z,23.70
2023-05-05T21:19:31.912Z,23.70
2023-05-05T21:22:19.572Z,23.70
2023-05-05T21:25:18.299Z,23.70
2023-05-05T21:28:05.614Z,23.70
2023-05-05T21:33:42.912Z,23.50
2023-05-05T21:36:30.354Z,23.40
2023-05-05T21:39:17.514Z,23.30
2023-05-05T21:42:04.826Z,23.30
2023-05-05T21:44:52.020Z,23.20
2023-05-05T21:47:39.362Z,23.10
2023-05-05T21:50:27.675Z,23.00
2023-05-05T21:53:16.632Z,23.00
2023-05-05T21:56:06.526Z,22.90
2023-05-05T21:58:53.743Z,22.80
2023-05-05T22:01:40.925Z,22.80
2023-05-05T22:04:28.232Z,22.80
2023-05-05T22:07:15.460Z,22.80
2023-05-05T22:10:03.800Z,22.80
2023-05-05T22:12:51.064Z,22.80
2023-05-05T22:15:46.080Z,22.70
2023-05-05T22:18:33.705Z,22.70
2023-05-05T22:21:22.076Z,22.60
2023-05-05T22:24:09.347Z,22.50
2023-05-05T22:26:57.439Z,22.50
2023-05-05T22:29:44.726Z,22.50
2023-05-05T22:32:32.546Z,22.40
2023-05-05T22:35:20.324Z,22.40
2023-05-05T22:38:07.589Z,22.30
2023-05-05T22:40:54.794Z,22.30
2023-05-05T22:43:42.009Z,22.20
2023-05-05T22:46:29.273Z,22.20
2023-05-05T22:49:16.682Z,22.20
2023-05-05T22:52:03.940Z,22.20
2023-05-05T22:54:51.171Z,22.10
2023-05-05T22:57:38.510Z,22.10
2023-05-05T23:00:26.126Z,22.00
2023-05-05T23:03:13.335Z,21.90
2023-05-05T23:06:00.493Z,21.80
2023-05-05T23:08:48.950Z,21.70
2023-05-05T23:11:36.254Z,21.60
2023-05-05T23:14:23.517Z,21.60
2023-05-05T23:17:10.958Z,21.60
2023-05-05T23:19:58.139Z,21.50
2023-05-05T23:22:45.346Z,21.50
2023-05-05T23:25:32.594Z,21.50
2023-05-05T23:28:20.280Z,21.40
2023-05-05T23:31:07.516Z,21.40
2023-05-05T23:33:54.737Z,21.30
2023-05-05T23:36:42.063Z,21.30
2023-05-05T23:39:29.331Z,21.20
2023-05-05T23:42:16.484Z,21.20
2023-05-05T23:45:03.920Z,21.10
2023-05-05T23:47:52.406Z,21.10
2023-05-05T23:50:39.657Z,21.00
2023-05-05T23:53:26.888Z,20.90
2023-05-05T23:56:14.062Z,20.90
2023-05-05T23:59:01.415Z,20.90
